Time;durP1;ratioP1;P1;durP2;ratioP2;P2;SDS_P1;SDS_P2;PMS_P1;PMS_P2;Temp;Humidity;BMP_temperature;BMP_pressure;BME280_temperature;BME280_humidity;BME280_pressure;Samples;Min_cycle;Max_cycle;Signal;HPM_P1;HPM_P2
2023/10/09 00:03:06;;;;;;;6.43;3.88;;;14.50;99.90;;;;;;4994498;28;20054;-44
2023/10/09 00:05:47;;;;;;;5.20;3.78;;;14.50;99.90;;;;;;4993709;28;20077;-47
2023/10/09 00:08:32;;;;;;;7.88;3.88;;;14.50;99.90;;;;;;4994368;28;20097;-46
2023/10/09 00:11:15;;;;;;;9.57;4.65;;;14.50;99.90;;;;;;4994620;28;20046;-44
2023/10/09 00:13:52;;;;;;;7.40;4.15;;;14.50;99.90;;;;;;4994133;28;20410;-48
2023/10/09 00:16:34;;;;;;;8.93;3.95;;;14.40;99.90;;;;;;4994017;28;20030;-50
2023/10/09 00:19:20;;;;;;;8.70;3.85;;;14.40;99.90;;;;;;4994377;28;20114;-44
2023/10/09 00:21:46;;;;;;;;;;;14.40;99.90;;;;;;4994802;28;20045;-46
2023/10/09 00:24:13;;;;;;;7.05;3.38;;;14.40;99.90;;;;;;4994064;28;20357;-44
2023/10/09 00:26:48;;;;;;;4.95;3.83;;;14.40;99.90;;;;;;4993623;28;20482;-45
2023/10/09 00:29:26;;;;;;;5.20;3.40;;;14.40;99.90;;;;;;4994071;28;20035;-45
2023/10/09 00:32:13;;;;;;;4.88;3.42;;;14.40;99.90;;;;;;4994054;28;20038;-45
2023/10/09 00:34:41;;;;;;;5.55;2.95;;;14.40;99.90;;;;;;4993991;28;20028;-44
2023/10/09 00:37:16;;;;;;;9.10;3.17;;;14.50;99.90;;;;;;4993851;28;20079;-45
2023/10/09 00:39:47;;;;;;;6.90;3.70;;;14.50;99.90;;;;;;4993671;28;20026;-46
2023/10/09 00:42:15;;;;;;;4.80;3.60;;;14.50;99.90;;;;;;4993966;28;20042;-46
2023/10/09 00:44:43;;;;;;;7.40;3.33;;;14.50;99.90;;;;;;4993546;28;20050;-44
2023/10/09 00:47:20;;;;;;;6.65;3.33;;;14.60;99.90;;;;;;4993531;28;20033;-44
2023/10/09 00:49:58;;;;;;;4.25;3.25;;;14.50;99.90;;;;;;4993623;28;20025;-50
2023/10/09 00:52:36;;;;;;;7.20;3.33;;;14.50;99.90;;;;;;4993686;28;20030;-46
2023/10/09 00:55:55;;;;;;;6.72;3.85;;;14.40;99.90;;;;;;4992955;28;20037;-47
2023/10/09 00:57:57;;;;;;;5.53;3.00;;;14.50;99.90;;;;;;4996769;28;20074;-44
2023/10/09 01:00:45;;;;;;;7.82;3.25;;;14.50;99.90;;;;;;4993489;28;20046;-51
2023/10/09 01:03:20;;;;;;;4.70;3.35;;;14.50;99.90;;;;;;4993380;28;20117;-47
2023/10/09 01:05:57;;;;;;;6.72;3.50;;;14.40;99.90;;;;;;4993156;28;20053;-46
2023/10/09 01:11:18;;;;;;;12.43;4.70;;;14.40;99.90;;;;;;4994159;28;20379;-45
2023/10/09 01:16:18;;;;;;;7.30;4.50;;;14.30;99.90;;;;;;4992706;28;20027;-44
2023/10/09 01:18:46;;;;;;;8.48;4.30;;;14.20;99.90;;;;;;4993815;28;20134;-43
2023/10/09 01:21:13;;;;;;;10.10;4.57;;;14.20;99.90;;;;;;4993621;28;20393;-44
2023/10/09 01:26:39;;;;;;;6.80;3.88;;;14.10;99.90;;;;;;4992867;28;20113;-44
2023/10/09 01:29:14;;;;;;;6.47;4.30;;;14.10;99.90;;;;;;4993030;28;20058;-52
2023/10/09 01:31:56;;;;;;;;;;;14.10;99.90;;;;;;4993355;28;20504;-48
2023/10/09 01:34:48;;;;;;;7.38;4.10;;;14.20;99.90;;;;;;4992634;28;19906;-47
2023/10/09 01:37:36;;;;;;;6.90;4.40;;;14.20;99.90;;;;;;4992555;28;20030;-46
2023/10/09 01:40:25;;;;;;;10.90;4.47;;;14.20;99.90;;;;;;4992766;28;20076;-44
2023/10/09 01:42:50;;;;;;;12.30;5.47;;;14.20;99.90;;;;;;4992587;28;20092;-45
2023/10/09 01:47:46;;;;;;;14.20;5.30;;;14.10;99.90;;;;;;4992618;28;20367;-44
2023/10/09 01:50:19;;;;;;;9.63;4.88;;;14.10;99.90;;;;;;4992335;28;20031;-48
2023/10/09 01:52:44;;;;;;;5.65;5.07;;;14.00;99.90;;;;;;4992466;28;20030;-44
2023/10/09 01:55:27;;;;;;;8.45;4.97;;;14.10;99.90;;;;;;4992045;28;20034;-44
2023/10/09 01:57:53;;;;;;;10.15;4.95;;;14.00;99.90;;;;;;4992475;28;20402;-41
2023/10/09 02:00:23;;;;;;;13.38;5.00;;;14.00;99.90;;;;;;4992137;28;20027;-43
2023/10/09 02:02:50;;;;;;;9.77;5.18;;;14.00;99.90;;;;;;4992661;28;20057;-46
2023/10/09 02:07:51;;;;;;;10.52;4.78;;;13.90;99.90;;;;;;4992853;28;20045;-43
2023/10/09 02:12:57;;;;;;;432.75;251.35;;;13.90;99.90;;;;;;4992294;28;20030;-45
2023/10/09 02:18:17;;;;;;;16.58;8.30;;;13.90;99.90;;;;;;4992571;28;20022;-44
2023/10/09 02:20:46;;;;;;;11.93;6.18;;;13.90;99.90;;;;;;4992305;28;20134;-47
2023/10/09 02:23:20;;;;;;;9.88;4.57;;;13.90;99.90;;;;;;4991986;28;20106;-48
2023/10/09 02:25:47;;;;;;;10.38;4.80;;;13.90;99.90;;;;;;4991433;28;20030;-46
2023/10/09 02:28:18;;;;;;;11.27;4.95;;;13.90;99.90;;;;;;4993778;28;20030;-48
2023/10/09 02:30:48;;;;;;;9.02;4.97;;;14.00;99.90;;;;;;4996140;28;20037;-45
2023/10/09 02:33:27;;;;;;;9.82;4.43;;;14.00;99.90;;;;;;4995929;28;20064;-47
2023/10/09 02:35:54;;;;;;;6.30;3.90;;;14.00;99.90;;;;;;4995924;28;20026;-47
2023/10/09 02:38:23;;;;;;;3.95;3.38;;;14.10;99.90;;;;;;4996084;28;20022;-46
2023/10/09 02:41:20;;;;;;;10.20;5.07;;;14.10;99.90;;;;;;4996032;28;20050;-47
2023/10/09 02:43:55;;;;;;;10.30;4.82;;;14.20;99.90;;;;;;4994469;28;20509;-44
2023/10/09 02:46:28;;;;;;;10.18;4.07;;;14.20;99.90;;;;;;4995770;28;20054;-51
2023/10/09 02:48:56;;;;;;;6.15;4.30;;;14.20;99.90;;;;;;4995830;28;20086;-45
2023/10/09 02:53:57;;;;;;;10.25;4.75;;;14.10;99.90;;;;;;4995531;28;20043;-47
2023/10/09 02:56:43;;;;;;;10.18;5.60;;;14.20;99.90;;;;;;4995404;28;20053;-48
2023/10/09 02:59:09;;;;;;;10.82;6.45;;;14.20;99.90;;;;;;4995350;28;20049;-47
2023/10/09 03:01:37;;;;;;;12.35;6.07;;;14.20;99.90;;;;;;4995784;28;20025;-46
2023/10/09 03:04:06;;;;;;;9.60;5.72;;;14.20;99.90;;;;;;4995405;28;20397;-46
2023/10/09 03:06:38;;;;;;;12.27;5.45;;;14.20;99.90;;;;;;4995454;28;20158;-48
2023/10/09 03:09:16;;;;;;;13.70;5.93;;;14.20;99.90;;;;;;4995499;28;20113;-45
2023/10/09 03:11:44;;;;;;;16.15;6.03;;;14.10;99.90;;;;;;4995645;28;20101;-44
2023/10/09 03:14:10;;;;;;;12.85;6.65;;;14.20;99.90;;;;;;4995126;28;20033;-45
2023/10/09 03:16:36;;;;;;;10.52;6.07;;;14.20;99.90;;;;;;4995113;28;20101;-45
2023/10/09 03:19:03;;;;;;;15.43;6.90;;;14.20;99.90;;;;;;4995445;28;20026;-44
2023/10/09 03:21:28;;;;;;;15.95;7.13;;;14.20;99.90;;;;;;4995221;28;20045;-45
2023/10/09 03:23:55;;;;;;;14.15;7.80;;;14.20;99.90;;;;;;4994991;28;20458;-46
2023/10/09 03:26:22;;;;;;;12.65;6.82;;;14.20;99.90;;;;;;4995242;28;20521;-45
2023/10/09 03:28:48;;;;;;;11.60;6.90;;;14.30;99.90;;;;;;4994637;28;20034;-44
2023/10/09 03:31:14;;;;;;;15.57;7.95;;;14.30;99.90;;;;;;4995006;28;20030;-44
2023/10/09 03:33:40;;;;;;;13.95;7.40;;;14.20;99.90;;;;;;4994509;28;20038;-45
2023/10/09 03:36:09;;;;;;;17.75;7.63;;;14.20;99.90;;;;;;4994661;28;20022;-46
2023/10/09 03:38:36;;;;;;;11.35;7.00;;;14.20;99.90;;;;;;4995054;28;20394;-44
2023/10/09 03:41:06;;;;;;;18.30;7.82;;;14.20;99.90;;;;;;4994265;28;20019;-44
2023/10/09 03:43:42;;;;;;;20.95;8.65;;;14.20;99.90;;;;;;4994934;28;20113;-48
2023/10/09 03:46:32;;;;;;;13.45;8.65;;;14.20;99.90;;;;;;4994984;28;20210;-47
2023/10/09 03:49:00;;;;;;;16.80;8.18;;;14.20;99.90;;;;;;4994991;28;20033;-48
2023/10/09 03:51:26;;;;;;;16.92;7.57;;;14.10;99.90;;;;;;4994974;28;20390;-47
2023/10/09 03:53:55;;;;;;;12.93;8.05;;;14.10;99.90;;;;;;4994336;28;20034;-45
2023/10/09 03:56:21;;;;;;;23.15;7.13;;;14.20;99.90;;;;;;4994209;28;20054;-44
2023/10/09 03:58:54;;;;;;;13.05;8.13;;;14.10;99.90;;;;;;4994472;28;20467;-44
2023/10/09 04:01:37;;;;;;;12.57;7.30;;;14.10;99.90;;;;;;4993416;28;20105;-44
2023/10/09 04:04:04;;;;;;;16.52;7.03;;;14.10;99.90;;;;;;4993117;28;20485;-44
2023/10/09 04:06:32;;;;;;;14.95;7.00;;;14.10;99.90;;;;;;4994282;28;20045;-44
2023/10/09 04:12:12;;;;;;;12.82;7.53;;;14.10;99.90;;;;;;4994548;28;20030;-45
2023/10/09 04:14:50;;;;;;;17.13;7.35;;;14.00;99.90;;;;;;4994294;28;20069;-47
2023/10/09 04:22:38;;;;;;;26.35;8.30;;;14.10;99.90;;;;;;4994572;28;20033;-44
2023/10/09 04:25:07;;;;;;;20.17;8.13;;;14.20;99.90;;;;;;4993842;28;20030;-44
2023/10/09 04:27:36;;;;;;;16.30;7.53;;;14.30;99.90;;;;;;4994039;28;20107;-44
2023/10/09 04:30:02;;;;;;;18.20;8.02;;;14.20;99.90;;;;;;4994062;28;20018;-44
2023/10/09 04:32:28;;;;;;;18.65;8.15;;;14.20;99.90;;;;;;4993836;28;20019;-47
2023/10/09 04:35:19;;;;;;;13.65;8.02;;;14.20;99.90;;;;;;4993594;28;20042;-46
2023/10/09 04:37:44;;;;;;;15.23;8.05;;;14.20;99.90;;;;;;4993727;28;20033;-46
2023/10/09 04:40:58;;;;;;;16.75;7.78;;;14.20;99.90;;;;;;4993804;28;20022;-46
2023/10/09 04:42:59;;;;;;;21.33;8.02;;;14.10;99.90;;;;;;4990619;28;20121;-47
2023/10/09 04:48:10;;;;;;;13.60;7.10;;;14.10;99.90;;;;;;4994121;28;20030;-46
2023/10/09 04:53:22;;;;;;;22.08;7.85;;;14.10;99.90;;;;;;4993352;28;20073;-44
2023/10/09 04:55:54;;;;;;;17.27;8.07;;;14.10;99.90;;;;;;4993213;28;20022;-45
2023/10/09 04:58:24;;;;;;;17.55;7.78;;;14.00;99.90;;;;;;4993597;28;20029;-45
2023/10/09 05:03:28;;;;;;;24.92;8.32;;;14.10;99.90;;;;;;4993916;28;20024;-45
2023/10/09 05:06:20;;;;;;;19.92;7.78;;;14.10;99.90;;;;;;4993224;28;20411;-45
2023/10/09 05:08:46;;;;;;;22.20;7.88;;;14.10;99.90;;;;;;4993312;28;20034;-47
2023/10/09 05:14:11;;;;;;;15.07;7.95;;;14.10;99.90;;;;;;4993055;28;20037;-45
2023/10/09 05:16:37;;;;;;;21.65;7.82;;;14.10;99.90;;;;;;4992885;28;20486;-45
2023/10/09 05:19:06;;;;;;;22.92;7.35;;;14.10;99.90;;;;;;4993003;28;20596;-45
2023/10/09 05:21:44;;;;;;;16.55;7.60;;;14.10;99.90;;;;;;4993191;28;20022;-48
2023/10/09 05:26:51;;;;;;;21.30;7.32;;;14.10;99.90;;;;;;4992512;28;20063;-45
2023/10/09 05:29:19;;;;;;;22.42;7.45;;;14.10;99.90;;;;;;4993366;28;20441;-46
2023/10/09 05:37:24;;;;;;;16.27;7.07;;;14.00;99.90;;;;;;4992338;28;20089;-45
2023/10/09 05:48:02;;;;;;;18.05;8.07;;;14.00;99.90;;;;;;4992553;28;20019;-46
2023/10/09 05:59:45;;;;;;;19.92;7.15;;;14.00;99.90;;;;;;4992571;28;20031;-46
2023/10/09 06:04:12;;;;;;;24.08;7.03;;;14.10;99.90;;;;;;4992404;28;20518;-45
2023/10/09 06:06:55;;;;;;;19.13;6.80;;;14.20;99.90;;;;;;4992514;28;20034;-48
2023/10/09 06:11:49;;;;;;;19.00;7.03;;;14.20;99.90;;;;;;4992268;28;20022;-49
2023/10/09 06:17:01;;;;;;;20.17;7.30;;;14.30;99.90;;;;;;4992455;28;20033;-47
2023/10/09 06:19:28;;;;;;;16.90;6.40;;;14.40;99.90;;;;;;4992238;28;20022;-47
2023/10/09 06:24:43;;;;;;;19.90;7.63;;;14.50;99.90;;;;;;4992260;28;20049;-49
2023/10/09 06:29:35;;;;;;;17.33;7.57;;;14.50;99.90;;;;;;4991430;28;20030;-44
2023/10/09 06:34:46;;;;;;;18.17;6.73;;;14.60;99.90;;;;;;4992245;28;20408;-44
2023/10/09 06:37:19;;;;;;;23.92;6.75;;;14.60;99.90;;;;;;4991767;28;20653;-45
2023/10/09 06:40:10;;;;;;;18.98;6.97;;;14.70;99.90;;;;;;4991621;28;20030;-48
2023/10/09 06:47:56;;;;;;;17.70;7.32;;;14.70;99.90;;;;;;4992287;28;20022;-43
2023/10/09 06:50:24;;;;;;;13.90;7.10;;;14.70;99.90;;;;;;4991985;28;20027;-44
2023/10/09 06:55:50;;;;;;;25.08;7.97;;;14.70;99.90;;;;;;4972432;28;20034;-44
2023/10/09 06:58:28;;;;;;;21.90;6.82;;;14.70;99.90;;;;;;4973286;28;20028;-49
2023/10/09 07:03:32;;;;;;;15.77;6.60;;;14.70;99.90;;;;;;4972315;28;20019;-47
2023/10/09 07:06:09;;;;;;;19.88;7.57;;;14.70;99.90;;;;;;4972147;28;20026;-47
2023/10/09 07:08:44;;;;;;;24.63;7.50;;;14.70;99.90;;;;;;4972786;28;20026;-44
2023/10/09 07:11:56;;;;;;;24.85;8.15;;;14.80;99.90;;;;;;4972690;28;20030;-46
2023/10/09 07:14:32;;;;;;;33.58;19.83;;;14.80;99.90;;;;;;4972438;28;20037;-45
2023/10/09 07:17:15;;;;;;;22.55;9.82;;;14.80;99.90;;;;;;4976123;28;20077;-46
2023/10/09 07:27:44;;;;;;;14.52;7.18;;;14.90;99.90;;;;;;4994951;28;20027;-44
2023/10/09 07:38:35;;;;;;;15.77;6.85;;;15.00;99.90;;;;;;4983656;28;20026;-43
2023/10/09 07:48:56;;;;;;;19.60;7.43;;;15.20;99.90;;;;;;4995438;28;20141;-44
2023/10/09 07:51:23;;;;;;;16.77;6.72;;;15.20;99.90;;;;;;4994695;28;20043;-44
2023/10/09 07:54:08;;;;;;;22.52;7.32;;;15.30;99.90;;;;;;4994395;28;20485;-44
2023/10/09 07:56:45;;;;;;;23.08;7.45;;;15.30;99.90;;;;;;4975116;28;20042;-44
2023/10/09 07:59:11;;;;;;;16.38;6.10;;;15.40;99.90;;;;;;4975284;28;20023;-45
2023/10/09 08:01:52;;;;;;;12.43;6.22;;;15.40;99.90;;;;;;4975290;28;20069;-45
2023/10/09 08:04:48;;;;;;;25.73;7.85;;;15.50;99.90;;;;;;4975825;28;20114;-44
2023/10/09 08:07:25;;;;;;;23.25;7.10;;;15.50;99.90;;;;;;4982215;28;20062;-47
2023/10/09 08:15:20;;;;;;;21.10;7.03;;;16.00;99.90;;;;;;4980768;28;20059;-44
2023/10/09 08:18:27;;;;;;;19.45;6.97;;;15.80;99.90;;;;;;4994266;28;20022;-49
2023/10/09 08:23:29;;;;;;;16.92;7.15;;;16.00;99.90;;;;;;4993728;28;20018;-46
2023/10/09 08:26:13;;;;;;;24.55;7.30;;;16.10;99.90;;;;;;4992454;28;20058;-45
2023/10/09 08:28:42;;;;;;;22.00;7.40;;;16.20;99.90;;;;;;4991417;28;20308;-45
2023/10/09 08:31:19;;;;;;;21.13;8.70;;;16.20;99.90;;;;;;4991827;28;20026;-48
2023/10/09 08:33:58;;;;;;;23.17;6.68;;;16.30;99.90;;;;;;4992511;28;20453;-47
2023/10/09 08:36:28;;;;;;;20.23;7.00;;;16.30;99.90;;;;;;4993351;28;20054;-49
2023/10/09 08:38:58;;;;;;;20.13;6.97;;;16.30;99.90;;;;;;4992134;28;20022;-45
2023/10/09 08:41:25;;;;;;;15.90;6.32;;;16.30;99.90;;;;;;4973365;28;20031;-48
2023/10/09 08:43:54;;;;;;;24.80;7.00;;;16.40;99.90;;;;;;4990202;28;20048;-46
2023/10/09 08:46:21;;;;;;;14.50;5.68;;;16.30;99.90;;;;;;4993440;28;20060;-47
2023/10/09 08:48:48;;;;;;;19.85;5.93;;;16.30;99.90;;;;;;4993987;28;20149;-45
2023/10/09 08:51:14;;;;;;;18.27;7.32;;;16.30;99.90;;;;;;4993726;28;20442;-49
2023/10/09 08:53:42;;;;;;;18.63;7.40;;;16.30;99.90;;;;;;4993055;28;20161;-47
2023/10/09 08:56:10;;;;;;;15.48;6.78;;;16.30;99.90;;;;;;4992794;28;20540;-48
2023/10/09 08:58:40;;;;;;;15.88;6.82;;;16.40;99.90;;;;;;4993791;28;20030;-46
2023/10/09 09:01:05;;;;;;;15.43;5.88;;;16.40;99.90;;;;;;4993563;28;20026;-46
2023/10/09 09:03:45;;;;;;;16.25;5.97;;;16.40;99.90;;;;;;4993385;28;20689;-45
2023/10/09 09:06:11;;;;;;;14.57;5.93;;;16.40;99.90;;;;;;4993076;28;20031;-45
2023/10/09 09:08:37;;;;;;;15.23;6.15;;;16.50;99.90;;;;;;4992971;28;20026;-47
2023/10/09 09:11:11;;;;;;;19.23;6.88;;;16.50;99.90;;;;;;4992985;28;20038;-45
2023/10/09 09:14:04;;;;;;;15.40;6.20;;;16.50;99.90;;;;;;4991198;28;20088;-47
2023/10/09 09:16:31;;;;;;;22.50;6.35;;;16.50;99.90;;;;;;4993092;28;20053;-46
2023/10/09 09:19:05;;;;;;;49.17;31.77;;;16.50;99.90;;;;;;4993196;28;20489;-44
2023/10/09 09:21:40;;;;;;;15.88;7.30;;;16.60;99.90;;;;;;4993211;28;20022;-45
2023/10/09 09:24:26;;;;;;;13.32;6.93;;;16.70;99.90;;;;;;4992841;28;20379;-45
2023/10/09 09:27:09;;;;;;;19.15;7.53;;;16.60;99.90;;;;;;4992820;28;20105;-44
2023/10/09 09:29:38;;;;;;;18.38;6.10;;;16.70;99.90;;;;;;4992954;28;20054;-45
2023/10/09 09:32:18;;;;;;;14.85;6.03;;;16.70;99.90;;;;;;4991937;28;20053;-44
2023/10/09 09:34:49;;;;;;;18.42;5.82;;;16.70;99.90;;;;;;4992579;28;20113;-45
2023/10/09 09:37:28;;;;;;;21.45;6.00;;;16.70;99.90;;;;;;4991757;28;20027;-45
2023/10/09 09:40:14;;;;;;;17.00;6.50;;;16.80;99.90;;;;;;4993023;28;20025;-48
2023/10/09 09:42:48;;;;;;;22.67;6.00;;;16.80;99.90;;;;;;4992290;28;20490;-45
2023/10/09 09:45:14;;;;;;;17.08;7.80;;;16.80;99.90;;;;;;4992325;28;20022;-46
2023/10/09 09:47:47;;;;;;;17.77;6.82;;;16.90;99.90;;;;;;4992202;28;20026;-46
2023/10/09 09:50:22;;;;;;;14.43;6.20;;;16.90;99.90;;;;;;4992664;28;20050;-47
2023/10/09 09:52:49;;;;;;;14.18;6.03;;;16.90;99.90;;;;;;4992584;28;20061;-47
2023/10/09 09:55:18;;;;;;;18.45;7.15;;;17.00;99.90;;;;;;4991538;28;20240;-46
2023/10/09 09:57:51;;;;;;;21.15;6.82;;;17.10;99.90;;;;;;4991847;28;20440;-46
2023/10/09 10:00:42;;;;;;;16.63;6.03;;;17.20;99.90;;;;;;4991246;28;20370;-43
2023/10/09 10:03:33;;;;;;;19.85;6.10;;;17.20;99.90;;;;;;4992214;28;20531;-48
2023/10/09 10:06:05;;;;;;;17.25;6.68;;;17.40;99.90;;;;;;4991501;28;20046;-44
2023/10/09 10:08:32;;;;;;;11.77;5.78;;;17.40;99.90;;;;;;4991953;28;20156;-45
2023/10/09 10:11:05;;;;;;;16.35;6.35;;;17.50;99.90;;;;;;4992284;28;20528;-48
2023/10/09 10:13:42;;;;;;;9.93;5.65;;;17.50;99.90;;;;;;4991614;28;20030;-44
2023/10/09 10:16:13;;;;;;;21.02;6.65;;;17.60;99.90;;;;;;4990270;28;20034;-50
2023/10/09 10:21:48;;;;;;;11.18;5.40;;;17.70;99.90;;;;;;4992003;28;20030;-47
2023/10/09 10:24:30;;;;;;;19.25;6.70;;;17.70;99.90;;;;;;4992175;28;20048;-49
2023/10/09 10:30:11;;;;;;;17.63;7.00;;;17.70;99.90;;;;;;4993052;28;20042;-44
2023/10/09 10:32:51;;;;;;;15.13;6.85;;;17.70;99.90;;;;;;4991815;28;20026;-44
2023/10/09 10:35:20;;;;;;;17.40;7.03;;;17.80;99.90;;;;;;4991616;28;20486;-45
2023/10/09 10:38:00;;;;;;;17.52;5.57;;;17.90;99.90;;;;;;4992548;28;20475;-46
2023/10/09 10:40:40;;;;;;;15.13;5.47;;;17.90;99.90;;;;;;4992205;28;20069;-46
2023/10/09 10:43:13;;;;;;;25.90;6.80;;;18.00;99.90;;;;;;4992017;28;20030;-47
2023/10/09 10:45:45;;;;;;;18.48;7.78;;;18.10;99.90;;;;;;4991905;28;20041;-48
2023/10/09 10:48:22;;;;;;;22.48;7.55;;;18.10;99.90;;;;;;4992086;28;20084;-45
2023/10/09 10:50:57;;;;;;;18.55;6.25;;;18.20;99.90;;;;;;4994716;28;20027;-45
2023/10/09 10:53:26;;;;;;;14.83;5.00;;;18.30;99.90;;;;;;4995769;28;20176;-46
2023/10/09 11:01:50;;;;;;;23.80;8.75;;;18.60;99.90;;;;;;4995657;28;20053;-47
2023/10/09 11:04:24;;;;;;;16.23;6.30;;;18.70;99.90;;;;;;4995672;28;20106;-44
2023/10/09 11:06:51;;;;;;;24.27;6.72;;;18.70;99.90;;;;;;4996307;28;20030;-47
2023/10/09 11:09:23;;;;;;;21.40;6.32;;;18.90;99.90;;;;;;4995686;28;20486;-45
2023/10/09 11:11:50;;;;;;;18.67;6.45;;;19.00;99.90;;;;;;4992753;28;20080;-46
2023/10/09 11:14:17;;;;;;;14.75;6.35;;;19.20;99.90;;;;;;4994924;28;20026;-51
2023/10/09 11:16:47;;;;;;;21.42;6.63;;;19.30;99.90;;;;;;5001849;28;20109;-49
2023/10/09 11:22:28;;;;;;;21.15;5.93;;;19.60;99.90;;;;;;4994937;28;20027;-48
2023/10/09 11:24:43;;;;;;;13.32;6.03;;;19.70;99.90;;;;;;4995026;28;20505;-47
2023/10/09 11:27:18;;;;;;;14.48;5.40;;;19.70;99.90;;;;;;4994953;28;20423;-47
2023/10/09 11:32:23;;;;;;;15.00;5.25;;;19.90;99.90;;;;;;4995416;28;19933;-46
2023/10/09 11:34:53;;;;;;;16.67;6.18;;;19.90;99.90;;;;;;4987748;28;20381;-45
2023/10/09 11:39:55;;;;;;;14.30;5.10;;;20.20;99.90;;;;;;4994349;28;20144;-44
2023/10/09 11:42:35;;;;;;;18.30;5.13;;;20.40;99.90;;;;;;4993457;28;20050;-45
2023/10/09 11:45:19;;;;;;;13.75;5.20;;;20.50;99.90;;;;;;4995181;28;20023;-44
2023/10/09 11:47:58;;;;;;;12.43;5.20;;;20.60;99.90;;;;;;4994829;28;20401;-44
2023/10/09 11:50:51;;;;;;;13.82;4.65;;;20.70;99.90;;;;;;4993958;28;20014;-48
2023/10/09 11:55:52;;;;;;;15.38;4.63;;;20.90;99.90;;;;;;4994545;28;20125;-44
2023/10/09 11:58:24;;;;;;;12.63;5.20;;;21.00;99.90;;;;;;4994525;28;20054;-44
2023/10/09 12:01:03;;;;;;;14.43;5.25;;;21.00;99.90;;;;;;4994194;28;20031;-47
2023/10/09 12:03:29;;;;;;;14.68;5.93;;;21.10;99.90;;;;;;4994880;28;20461;-45
2023/10/09 12:06:04;;;;;;;10.32;4.53;;;21.10;99.90;;;;;;4994087;28;20109;-44
2023/10/09 12:08:30;;;;;;;13.57;4.83;;;21.10;99.90;;;;;;4994474;28;20030;-46
2023/10/09 12:10:55;;;;;;;8.18;4.60;;;21.20;99.90;;;;;;4994744;28;20076;-46
2023/10/09 12:13:23;;;;;;;11.10;5.00;;;21.20;99.90;;;;;;4994052;28;20050;-47
2023/10/09 12:15:53;;;;;;;10.00;4.47;;;21.20;99.90;;;;;;4994251;28;20395;-46
2023/10/09 12:18:23;;;;;;;12.02;4.97;;;21.30;99.90;;;;;;4994443;28;20042;-46
2023/10/09 12:20:56;;;;;;;10.57;6.00;;;21.30;99.90;;;;;;4994334;28;20015;-46
2023/10/09 12:23:22;;;;;;;10.73;5.32;;;21.40;99.90;;;;;;4994192;28;20088;-45
2023/10/09 12:25:56;;;;;;;12.38;4.20;;;21.40;99.90;;;;;;4993859;28;20110;-48
2023/10/09 12:28:22;;;;;;;30.13;17.52;;;21.40;99.90;;;;;;4993681;28;20033;-45
2023/10/09 12:30:50;;;;;;;15.50;7.38;;;21.50;99.90;;;;;;4993911;28;20060;-46
2023/10/09 12:33:18;;;;;;;25.67;17.95;;;21.50;99.90;;;;;;4993856;28;20022;-47
2023/10/09 12:35:47;;;;;;;15.43;5.70;;;21.50;99.90;;;;;;4993505;28;20058;-48
2023/10/09 12:38:18;;;;;;;13.15;5.28;;;21.50;99.90;;;;;;4993756;28;20093;-44
2023/10/09 12:40:50;;;;;;;18.52;6.18;;;21.50;99.90;;;;;;4993876;28;20022;-45
2023/10/09 12:43:19;;;;;;;9.90;4.82;;;21.50;99.90;;;;;;4993548;28;20033;-46
2023/10/09 12:45:48;;;;;;;9.35;4.68;;;21.50;99.90;;;;;;4993485;28;20034;-46
2023/10/09 12:48:14;;;;;;;15.38;5.30;;;21.50;99.90;;;;;;4993547;28;20054;-45
2023/10/09 12:50:44;;;;;;;12.68;4.78;;;21.50;99.90;;;;;;4993461;28;20030;-44
2023/10/09 12:53:10;;;;;;;16.88;5.28;;;21.50;99.90;;;;;;4993076;28;20037;-45
2023/10/09 12:55:41;;;;;;;9.73;4.75;;;21.50;99.90;;;;;;4993137;28;20104;-46
2023/10/09 12:58:08;;;;;;;13.95;5.80;;;21.40;99.90;;;;;;4994670;28;20026;-49
2023/10/09 13:00:41;;;;;;;17.83;5.10;;;21.50;99.90;;;;;;4993295;28;20093;-47
2023/10/09 13:03:19;;;;;;;9.88;4.55;;;21.50;99.90;;;;;;4993270;28;20402;-49
2023/10/09 13:05:54;;;;;;;10.75;4.85;;;21.50;99.90;;;;;;4993380;28;20026;-45
2023/10/09 13:08:31;;;;;;;12.30;4.93;;;21.50;99.90;;;;;;4993490;28;20113;-46
2023/10/09 13:11:04;;;;;;;14.63;5.68;;;21.50;99.90;;;;;;4993337;28;20031;-45
2023/10/09 13:13:50;;;;;;;12.30;5.25;;;21.50;99.90;;;;;;4992493;28;20029;-46
2023/10/09 13:16:27;;;;;;;12.48;5.60;;;21.60;99.90;;;;;;4993220;28;20053;-48
2023/10/09 13:18:59;;;;;;;11.88;4.72;;;;;;;;;;4993333;28;20053;-48
2023/10/09 13:21:26;;;;;;;9.82;4.35;;;21.60;99.90;;;;;;4993210;28;20026;-48
2023/10/09 13:23:54;;;;;;;13.73;5.05;;;21.70;99.90;;;;;;4992872;28;20059;-48
2023/10/09 13:26:25;;;;;;;13.02;4.90;;;21.70;99.90;;;;;;4992753;28;20030;-48
2023/10/09 13:28:52;;;;;;;10.98;5.13;;;21.70;99.90;;;;;;4993066;28;20018;-48
2023/10/09 13:31:20;;;;;;;16.00;5.10;;;21.80;99.90;;;;;;4993024;28;20042;-49
2023/10/09 13:33:46;;;;;;;12.48;4.95;;;21.90;99.90;;;;;;4993064;28;20022;-51
2023/10/09 13:36:19;;;;;;;13.90;5.00;;;21.90;99.90;;;;;;4992623;28;20437;-48
2023/10/09 13:38:48;;;;;;;16.05;5.30;;;22.00;99.90;;;;;;4992806;28;20027;-45
2023/10/09 13:41:17;;;;;;;16.10;8.35;;;22.00;99.90;;;;;;4993026;28;20118;-50
2023/10/09 13:43:43;;;;;;;8.13;4.50;;;22.00;99.90;;;;;;4992553;28;20389;-48
2023/10/09 13:46:11;;;;;;;13.70;5.97;;;22.10;99.90;;;;;;4993001;28;20026;-48
2023/10/09 13:48:41;;;;;;;9.35;4.80;;;22.20;99.90;;;;;;4993148;28;20038;-49
2023/10/09 13:51:19;;;;;;;12.40;5.60;;;22.20;99.90;;;;;;4992810;28;20034;-48
2023/10/09 13:53:45;;;;;;;7.93;4.50;;;22.20;99.90;;;;;;4992178;28;20038;-45
2023/10/09 13:56:18;;;;;;;15.27;5.78;;;22.10;99.90;;;;;;4992260;28;20026;-45
2023/10/09 13:58:51;;;;;;;9.70;5.50;;;22.20;99.90;;;;;;4992520;28;20057;-44
2023/10/09 14:01:36;;;;;;;11.38;5.35;;;22.20;99.90;;;;;;4992568;28;20072;-45
2023/10/09 14:04:01;;;;;;;11.10;5.88;;;22.20;99.90;;;;;;4992191;28;20029;-45
2023/10/09 14:06:30;;;;;;;11.27;4.40;;;22.20;99.90;;;;;;4992519;28;20026;-45
2023/10/09 14:09:09;;;;;;;16.52;5.38;;;22.20;99.90;;;;;;4992654;28;20038;-45
2023/10/09 14:11:37;;;;;;;11.88;5.63;;;22.20;99.90;;;;;;4993086;28;20076;-48
2023/10/09 14:14:09;;;;;;;13.93;5.47;;;22.20;99.90;;;;;;4993691;28;20030;-46
2023/10/09 14:16:35;;;;;;;13.07;5.70;;;22.20;99.90;;;;;;4992406;28;20022;-48
2023/10/09 14:19:01;;;;;;;12.95;5.75;;;22.30;99.90;;;;;;4992399;28;20034;-47
2023/10/09 14:21:30;;;;;;;13.05;5.43;;;22.30;99.90;;;;;;4992284;28;20394;-46
2023/10/09 14:23:57;;;;;;;15.45;5.38;;;22.30;99.90;;;;;;4991796;28;20505;-45
2023/10/09 14:26:26;;;;;;;16.67;5.28;;;22.40;99.90;;;;;;4992056;28;20034;-46
2023/10/09 14:28:53;;;;;;;11.82;5.78;;;22.30;99.90;;;;;;4992015;28;20097;-47
2023/10/09 14:31:26;;;;;;;14.43;5.13;;;22.30;99.90;;;;;;4992084;28;20073;-47
2023/10/09 14:33:53;;;;;;;12.52;4.95;;;22.40;99.90;;;;;;4991858;28;20486;-47
2023/10/09 14:36:20;;;;;;;11.77;5.18;;;22.40;99.90;;;;;;4991850;28;20405;-46
2023/10/09 14:38:52;;;;;;;9.18;5.07;;;22.40;99.90;;;;;;4991923;28;20475;-48
2023/10/09 14:41:21;;;;;;;9.13;4.57;;;22.40;99.90;;;;;;4992398;28;20410;-46
2023/10/09 14:43:48;;;;;;;11.27;4.50;;;22.30;99.90;;;;;;4991693;28;20018;-45
2023/10/09 14:46:14;;;;;;;10.63;5.13;;;22.30;99.90;;;;;;4991883;28;20402;-46
2023/10/09 14:48:41;;;;;;;7.80;4.63;;;22.40;99.90;;;;;;4991971;28;20117;-46
2023/10/09 14:51:07;;;;;;;12.32;4.88;;;22.40;99.90;;;;;;4991672;28;20037;-47
2023/10/09 14:53:35;;;;;;;10.02;4.90;;;22.40;99.90;;;;;;4991192;28;20034;-49
2023/10/09 14:56:01;;;;;;;17.73;5.90;;;22.40;99.90;;;;;;4991513;28;20030;-49
2023/10/09 14:58:29;;;;;;;8.10;4.47;;;22.30;99.90;;;;;;4991940;28;20418;-47
2023/10/09 15:00:55;;;;;;;14.70;4.90;;;22.30;99.90;;;;;;4992344;28;20329;-48
2023/10/09 15:03:22;;;;;;;10.00;5.65;;;22.30;99.90;;;;;;4991797;28;20027;-47
2023/10/09 15:05:48;;;;;;;11.07;5.07;;;22.20;99.90;;;;;;4991952;28;20034;-49
2023/10/09 15:08:14;;;;;;;6.97;4.38;;;22.20;99.90;;;;;;4992080;28;20034;-47
2023/10/09 15:10:49;;;;;;;7.25;4.32;;;22.30;99.90;;;;;;4991918;28;20402;-48
2023/10/09 15:13:16;;;;;;;16.65;4.63;;;22.20;99.90;;;;;;4990529;28;20050;-46
2023/10/09 15:15:43;;;;;;;9.35;5.18;;;22.20;99.90;;;;;;4991494;28;20462;-47
2023/10/09 15:18:12;;;;;;;7.10;4.60;;;22.10;99.90;;;;;;4991979;28;20074;-48
2023/10/09 15:20:39;;;;;;;9.75;5.35;;;22.10;99.90;;;;;;4991884;28;20018;-48
2023/10/09 15:23:05;;;;;;;9.45;5.10;;;22.00;99.90;;;;;;4992299;28;20050;-46
2023/10/09 15:25:31;;;;;;;11.45;5.05;;;22.00;99.90;;;;;;4990475;28;20104;-47
2023/10/09 15:27:57;;;;;;;10.25;4.95;;;21.90;99.90;;;;;;4992159;28;20556;-49
2023/10/09 15:30:23;;;;;;;12.95;5.25;;;21.90;99.90;;;;;;4992025;28;20110;-45
2023/10/09 15:32:51;;;;;;;10.38;4.25;;;21.90;99.90;;;;;;4992269;28;20053;-45
2023/10/09 15:35:18;;;;;;;12.93;4.97;;;21.90;99.90;;;;;;4991418;28;20105;-45